Portada
METAR-TAF:

METAR-TAF

Aeroports :

São Paulo-Congonhas, São Paulo, Brasil

latitud: 23-37S, longitud: 046-39W, altitud: 803 m

Observació

L'informe es va fer fa 13 minuts, a les 02:19 UTC
Vent 16 kt del Sud/Sud-Est
Temperatura 14°C
Humitat 88%
Pressió 1022 hPa
Visibilitat: 2100 m

METAR: SBSP 220219Z AUTO 16016KT 2100 // OVC006/// 14/12 Q1022

Hora: 23:32 (02:32 UTC)

Pronòstic

L'informe es va fer fa 4 hores i 32 minuts, a les 22:00 UTC
Pronòstic vàlid del 22 a les 00 UTC al 22 a les 12 UTC
Vent 12 kt del Sud
Visibilitat: 5000 m
Cel ennuvolat a una alçada de 600 ft
boirina
Evolucionant progressivament
l' 22 a les 04 UTC al 22 a les 06 UTC
Visibilitat: 4000 m
Cel cobert a una alçada de 500 ft
pluja, plugim, boirina
Evolucionant progressivament
l' 22 a les 09 UTC al 22 a les 11 UTC
Visibilitat: 8000 m
Cel ennuvolat a una alçada de 1100 ft

TAF: SBSP 212200Z 2200/2212 18012KT 5000 BR BKN006 TX17/2200Z TN14/2209Z BECMG 2204/2206 4000 RADZ BR OVC005 BECMG 2209/2211 8000 NSW BKN011 RMK PGG

Observacions i pronòstics meteorològics de més de 4000 aeroports (METAR i TAF).

Les estacions disponibles són els punts grocs i vermells al mapa.

Posi el ratolí al punt desitjat per veure el nom de l'estació.

Feu clic per veure les observacions i els pronòstics meteorològics.

Per canviar el mapa: feu clic els botons verds amb una creu de color negre per apropar; al botó verd amb un guió per allunyar la imatge; o en les fletxes verdes per a mapes adjacents.


METAR-TAF: